createdAt,value
2018-05-12T00:00:56.669Z,0.00
2018-05-12T00:01:56.668Z,0.00
2018-05-12T00:02:57.167Z,0.00
2018-05-12T00:03:57.181Z,0.00
2018-05-12T00:04:57.167Z,0.00
2018-05-12T00:05:57.323Z,0.00
2018-05-12T00:06:57.670Z,0.00
2018-05-12T00:08:18.690Z,0.00
2018-05-12T00:08:57.666Z,0.00
2018-05-12T00:09:57.666Z,0.00
2018-05-12T00:10:58.164Z,0.00
2018-05-12T00:12:21.166Z,0.00
2018-05-12T00:12:58.163Z,0.00
2018-05-12T00:13:58.169Z,0.00
2018-05-12T00:14:58.700Z,0.00
2018-05-12T00:17:51.034Z,0.00
2018-05-12T00:18:30.041Z,0.00
2018-05-12T00:19:30.049Z,0.00
2018-05-12T00:20:32.541Z,0.00
2018-05-12T00:21:30.541Z,0.00
2018-05-12T00:22:30.548Z,0.00
2018-05-12T00:26:33.617Z,0.00
2018-05-12T00:27:33.620Z,0.00
2018-05-12T00:28:33.623Z,0.00
2018-05-12T00:29:34.120Z,0.00
2018-05-12T00:30:36.552Z,0.00
2018-05-12T00:31:34.127Z,0.00
2018-05-12T00:32:34.123Z,0.00
2018-05-12T00:35:26.861Z,0.00
2018-05-12T00:36:05.867Z,0.00
2018-05-12T00:37:26.868Z,0.00
2018-05-12T00:38:28.365Z,0.00
2018-05-12T00:39:27.367Z,0.00
2018-05-12T00:40:05.723Z,0.00
2018-05-12T00:41:06.406Z,0.00
2018-05-12T00:42:27.868Z,0.00
2018-05-12T00:43:27.870Z,0.00
2018-05-12T00:44:08.300Z,0.00
2018-05-12T00:45:06.869Z,0.00
2018-05-12T00:46:28.368Z,0.00
2018-05-12T00:47:28.369Z,0.00
2018-05-12T00:48:10.301Z,0.00
2018-05-12T00:49:06.833Z,0.00
2018-05-12T00:50:09.893Z,0.00
2018-05-12T00:51:07.868Z,0.00
2018-05-12T00:52:28.868Z,0.00
2018-05-12T00:53:07.872Z,0.00
2018-05-12T00:54:28.446Z,0.00
2018-05-12T00:55:07.544Z,0.00
2018-05-12T00:56:07.649Z,0.00
2018-05-12T00:59:00.918Z,0.00
2018-05-12T00:59:39.904Z,0.00
2018-05-12T01:00:39.905Z,0.00
2018-05-12T01:03:11.646Z,0.00
2018-05-12T01:04:11.655Z,0.00
2018-05-12T01:05:11.653Z,0.00
2018-05-12T01:06:17.586Z,0.00
2018-05-12T01:07:33.162Z,0.00
2018-05-12T01:08:13.621Z,0.00
2018-05-12T01:09:12.153Z,0.00
2018-05-12T01:10:12.661Z,0.00
2018-05-12T01:11:12.656Z,0.00
2018-05-12T01:12:12.656Z,0.00
2018-05-12T01:13:12.654Z,0.00
2018-05-12T01:14:35.653Z,0.00
2018-05-12T01:15:35.130Z,0.00
2018-05-12T01:16:13.149Z,0.00
2018-05-12T01:17:14.625Z,0.00
2018-05-12T01:19:44.877Z,0.00
2018-05-12T01:20:44.877Z,0.00
2018-05-12T01:21:44.883Z,0.00
2018-05-12T01:24:16.625Z,0.00
2018-05-12T01:25:16.631Z,0.00
2018-05-12T01:26:16.631Z,0.00
2018-05-12T01:27:17.131Z,0.00
2018-05-12T01:28:17.132Z,0.00
2018-05-12T01:29:17.138Z,0.00
2018-05-12T01:30:38.137Z,0.00
2018-05-12T01:31:17.631Z,0.00
2018-05-12T01:32:17.632Z,0.00
2018-05-12T01:33:16.983Z,0.00
2018-05-12T01:34:17.633Z,0.00
2018-05-12T01:35:18.130Z,0.00
2018-05-12T01:36:18.131Z,0.00
2018-05-12T01:37:38.461Z,0.00
2018-05-12T01:38:18.126Z,0.00
2018-05-12T01:39:18.131Z,0.00
2018-05-12T01:40:18.631Z,0.00
2018-05-12T01:41:18.631Z,0.00
2018-05-12T01:42:18.631Z,0.00
2018-05-12T01:43:19.629Z,0.00
2018-05-12T01:44:19.131Z,0.00
2018-05-12T01:45:42.064Z,0.00
2018-05-12T01:46:40.131Z,0.00
2018-05-12T01:47:19.130Z,0.00
2018-05-12T01:49:50.898Z,0.00
2018-05-12T01:51:13.901Z,0.00
2018-05-12T01:52:11.900Z,0.00
2018-05-12T01:52:53.410Z,0.00
2018-05-12T01:53:51.410Z,0.00
2018-05-12T01:54:50.745Z,0.00
2018-05-12T01:55:51.401Z,0.00
2018-05-12T01:58:24.582Z,0.00
2018-05-12T01:59:23.150Z,0.00
2018-05-12T02:00:23.157Z,0.00
2018-05-12T02:01:25.666Z,0.00
2018-05-12T02:02:23.656Z,0.00
2018-05-12T02:03:23.007Z,0.00
2018-05-12T02:04:23.656Z,0.00
2018-05-12T02:05:24.157Z,0.00
2018-05-12T02:06:31.090Z,0.00
2018-05-12T02:07:23.539Z,0.00
2018-05-12T02:08:45.157Z,0.00
2018-05-12T02:09:27.082Z,0.00
2018-05-12T02:10:38.650Z,0.00
2018-05-12T02:11:24.650Z,0.00
2018-05-12T02:12:25.584Z,0.00
2018-05-12T02:13:27.584Z,0.00
2018-05-12T02:14:27.151Z,0.00
2018-05-12T02:15:26.082Z,0.00
2018-05-12T02:16:25.152Z,0.00
2018-05-12T02:17:25.653Z,0.00
2018-05-12T02:18:25.650Z,0.00
2018-05-12T02:19:25.650Z,0.00
2018-05-12T02:20:25.654Z,0.00
2018-05-12T02:21:47.151Z,0.00
2018-05-12T02:22:26.660Z,0.00
2018-05-12T02:23:26.149Z,0.00
2018-05-12T02:24:26.150Z,0.00
2018-05-12T02:25:26.646Z,0.00
2018-05-12T02:26:26.653Z,0.00
2018-05-12T02:27:26.649Z,0.00
2018-05-12T02:28:27.149Z,0.00
2018-05-12T02:29:28.622Z,0.00
2018-05-12T02:30:27.163Z,0.00
2018-05-12T02:31:27.150Z,0.00
2018-05-12T02:32:26.623Z,0.00
2018-05-12T02:33:27.651Z,0.00
2018-05-12T02:34:27.650Z,0.00
2018-05-12T02:35:27.650Z,0.00
2018-05-12T02:36:27.648Z,0.00
2018-05-12T02:37:27.245Z,0.00
2018-05-12T02:38:28.149Z,0.00
2018-05-12T02:39:28.150Z,0.00
2018-05-12T02:40:28.152Z,0.00
2018-05-12T02:41:28.650Z,0.00
2018-05-12T02:42:27.879Z,0.00
2018-05-12T02:43:28.692Z,0.00
2018-05-12T02:44:28.655Z,0.00
2018-05-12T02:45:28.649Z,0.00
2018-05-12T02:46:50.157Z,0.00
2018-05-12T02:47:29.148Z,0.00
2018-05-12T02:48:50.159Z,0.00
2018-05-12T02:49:29.149Z,0.00
2018-05-12T02:50:50.650Z,0.00
2018-05-12T02:51:50.655Z,0.00
2018-05-12T02:52:50.649Z,0.00
2018-05-12T02:53:29.649Z,0.00
2018-05-12T02:56:00.679Z,0.00
2018-05-12T02:57:22.397Z,0.00
2018-05-12T02:58:01.407Z,0.00
2018-05-12T02:59:22.904Z,0.00
2018-05-12T03:00:03.903Z,0.00
2018-05-12T03:01:01.892Z,0.00
2018-05-12T03:02:22.897Z,0.00
2018-05-12T03:03:02.397Z,0.00
2018-05-12T03:04:02.398Z,0.00
2018-05-12T03:05:02.403Z,0.00
2018-05-12T03:06:02.397Z,0.00
2018-05-12T03:07:23.897Z,4.00
2018-05-12T03:08:02.897Z,4.00
2018-05-12T03:09:23.897Z,0.00
2018-05-12T03:10:02.910Z,0.00
2018-05-12T03:11:04.873Z,4.00
2018-05-12T03:12:03.397Z,0.00
2018-05-12T03:13:03.404Z,4.00
2018-05-12T03:14:03.397Z,4.00
2018-05-12T03:15:23.981Z,4.00
2018-05-12T03:17:35.220Z,8.00
2018-05-12T03:18:58.232Z,8.00
2018-05-12T03:19:35.236Z,8.00
2018-05-12T03:21:00.158Z,12.00
2018-05-12T03:21:35.726Z,16.00
2018-05-12T03:22:56.726Z,12.00
2018-05-12T03:23:35.745Z,16.00
2018-05-12T03:24:37.230Z,20.00
2018-05-12T03:25:36.226Z,24.00
2018-05-12T03:26:57.225Z,24.00
2018-05-12T03:27:36.225Z,28.00
2018-05-12T03:30:13.966Z,40.00
2018-05-12T03:31:08.002Z,44.00
2018-05-12T03:32:22.482Z,48.00
2018-05-12T03:34:54.236Z,64.00
2018-05-12T03:36:00.595Z,68.00
2018-05-12T03:36:46.232Z,72.00
2018-05-12T03:37:43.730Z,80.00
2018-05-12T03:38:42.663Z,88.00
2018-05-12T03:39:40.731Z,96.00
2018-05-12T03:40:42.706Z,104.00
2018-05-12T03:42:02.229Z,112.00
2018-05-12T03:43:02.237Z,120.00
2018-05-12T03:43:47.237Z,124.00
2018-05-12T03:44:40.710Z,136.00
2018-05-12T03:46:02.735Z,148.00
2018-05-12T03:48:13.130Z,168.00
2018-05-12T03:49:34.137Z,180.00
2018-05-12T03:50:14.647Z,192.00
2018-05-12T03:51:13.673Z,200.00
2018-05-12T03:52:12.828Z,208.00
2018-05-12T03:53:13.638Z,220.00
2018-05-12T03:54:13.639Z,236.00
2018-05-12T03:55:13.637Z,244.00
2018-05-12T03:57:45.386Z,276.00
2018-05-12T03:58:45.399Z,292.00
2018-05-12T03:59:45.392Z,296.00
2018-05-12T04:00:51.892Z,312.00
2018-05-12T04:01:45.117Z,324.00
2018-05-12T04:02:45.891Z,332.00
2018-05-12T04:03:45.384Z,348.00
2018-05-12T04:05:07.407Z,356.00
2018-05-12T04:05:46.392Z,372.00
2018-05-12T04:06:46.392Z,380.00
2018-05-12T04:07:45.863Z,392.00
2018-05-12T04:09:07.899Z,404.00
2018-05-12T04:09:46.892Z,420.00
2018-05-12T04:11:07.892Z,428.00
2018-05-12T04:12:07.893Z,440.00
2018-05-12T04:12:46.892Z,448.00
2018-05-12T04:13:48.869Z,460.00
2018-05-12T04:14:47.394Z,476.00
2018-05-12T04:15:47.395Z,488.00
2018-05-12T04:16:48.389Z,496.00
2018-05-12T04:17:47.899Z,504.00
2018-05-12T04:18:47.902Z,516.00
2018-05-12T04:19:47.892Z,532.00
2018-05-12T04:20:50.323Z,540.00
2018-05-12T04:21:48.397Z,552.00
2018-05-12T04:22:54.392Z,568.00
2018-05-12T04:23:48.394Z,576.00
2018-05-12T04:24:48.395Z,588.00
2018-05-12T04:25:48.942Z,596.00
2018-05-12T04:26:54.891Z,608.00
2018-05-12T04:27:48.891Z,628.00
2018-05-12T04:29:09.891Z,636.00
2018-05-12T04:29:48.897Z,648.00
2018-05-12T04:32:20.670Z,692.00
2018-05-12T04:33:20.677Z,708.00
2018-05-12T04:34:20.160Z,724.00
2018-05-12T04:35:21.176Z,736.00
2018-05-12T04:36:20.421Z,748.00
2018-05-12T04:37:21.200Z,764.00
2018-05-12T04:38:22.173Z,776.00
2018-05-12T04:39:21.672Z,788.00
2018-05-12T04:40:23.653Z,800.00
2018-05-12T04:41:21.680Z,816.00
2018-05-12T04:42:22.176Z,828.00
2018-05-12T04:43:22.188Z,844.00
2018-05-12T04:44:22.179Z,860.00
2018-05-12T04:45:22.183Z,876.00
2018-05-12T04:46:22.182Z,892.00
2018-05-12T04:47:22.685Z,900.00
2018-05-12T04:48:22.678Z,916.00
2018-05-12T04:49:22.700Z,932.00
2018-05-12T04:50:22.675Z,944.00
2018-05-12T04:51:23.188Z,956.00
2018-05-12T04:53:54.576Z,988.00
2018-05-12T04:54:55.514Z,1000.00
2018-05-12T04:55:54.585Z,1008.00
2018-05-12T04:57:15.159Z,1016.00
2018-05-12T04:57:54.287Z,1028.00
2018-05-12T04:58:55.081Z,1040.00
2018-05-12T04:59:55.083Z,1052.00
2018-05-12T05:00:54.552Z,1060.00
2018-05-12T05:01:55.581Z,1072.00
2018-05-12T05:02:55.586Z,1080.00
2018-05-12T05:04:16.587Z,1088.00
2018-05-12T05:04:55.582Z,1096.00
2018-05-12T05:05:56.082Z,1108.00
2018-05-12T05:06:57.084Z,1124.00
2018-05-12T05:07:56.081Z,1132.00
2018-05-12T05:08:56.079Z,1144.00
2018-05-12T05:09:55.681Z,1152.00
2018-05-12T05:10:58.015Z,1160.00
2018-05-12T05:12:17.581Z,1172.00
2018-05-12T05:12:58.014Z,1180.00
2018-05-12T05:13:56.587Z,1188.00
2018-05-12T05:15:18.128Z,1196.00
2018-05-12T05:15:58.536Z,1204.00
2018-05-12T05:17:00.015Z,1212.00
2018-05-12T05:17:57.081Z,1220.00
2018-05-12T05:18:58.514Z,1224.00
2018-05-12T05:20:17.764Z,1232.00
2018-05-12T05:20:57.581Z,1240.00
2018-05-12T05:21:57.581Z,1248.00
2018-05-12T05:22:57.580Z,1260.00
2018-05-12T05:23:58.090Z,1268.00
2018-05-12T05:24:58.081Z,1284.00
2018-05-12T05:25:58.081Z,1292.00
2018-05-12T05:26:58.091Z,1300.00
2018-05-12T05:28:04.585Z,1312.00
2018-05-12T05:28:58.578Z,1316.00
2018-05-12T05:29:58.579Z,1320.00
2018-05-12T05:30:58.065Z,1328.00
2018-05-12T05:31:59.092Z,1332.00
2018-05-12T05:32:59.081Z,1336.00
2018-05-12T05:33:59.085Z,1344.00
2018-05-12T05:34:58.558Z,1348.00
2018-05-12T05:36:01.583Z,1356.00
2018-05-12T05:36:59.580Z,1368.00
2018-05-12T05:39:45.104Z,1388.00
2018-05-12T05:40:31.115Z,1400.00
2018-05-12T05:41:31.118Z,1412.00
2018-05-12T05:42:54.611Z,1416.00
2018-05-12T05:43:31.627Z,1424.00
2018-05-12T05:44:31.670Z,1432.00
2018-05-12T05:45:31.612Z,1436.00
2018-05-12T05:48:03.360Z,1460.00
2018-05-12T05:50:56.386Z,1476.00
2018-05-12T05:51:35.391Z,1484.00
2018-05-12T05:52:35.395Z,1488.00
2018-05-12T05:53:35.892Z,1500.00
2018-05-12T05:54:56.891Z,1508.00
2018-05-12T05:55:35.902Z,1524.00
2018-05-12T05:56:56.893Z,1532.00
2018-05-12T05:57:35.501Z,1544.00
2018-05-12T05:58:36.414Z,1552.00
2018-05-12T05:59:36.391Z,1560.00
2018-05-12T06:00:57.392Z,1568.00
2018-05-12T06:01:36.894Z,1576.00
2018-05-12T06:02:36.890Z,1580.00
2018-05-12T06:03:36.890Z,1584.00
2018-05-12T06:04:59.392Z,1596.00
2018-05-12T06:07:08.733Z,1612.00
2018-05-12T06:08:31.077Z,1620.00
2018-05-12T06:09:08.114Z,1632.00
2018-05-12T06:11:40.390Z,1648.00
2018-05-12T06:12:41.832Z,1656.00
2018-05-12T06:13:40.397Z,1660.00
2018-05-12T06:14:42.328Z,1672.00
2018-05-12T06:15:43.335Z,1672.00
2018-05-12T06:16:40.901Z,1672.00
2018-05-12T06:17:40.900Z,1680.00
2018-05-12T06:20:12.635Z,1700.00
2018-05-12T06:21:12.642Z,1704.00
2018-05-12T06:22:13.148Z,1712.00
2018-05-12T06:23:13.141Z,1720.00
2018-05-12T06:24:34.141Z,1728.00
2018-05-12T06:26:44.775Z,1732.00
2018-05-12T06:27:44.837Z,1732.00
2018-05-12T06:29:05.771Z,1740.00
2018-05-12T06:29:44.777Z,1744.00
2018-05-12T06:30:45.272Z,1748.00
2018-05-12T06:31:45.271Z,1756.00
2018-05-12T06:32:45.272Z,1760.00
2018-05-12T06:34:06.337Z,1768.00
2018-05-12T06:35:05.805Z,1776.00
2018-05-12T06:35:45.774Z,1788.00
2018-05-12T06:36:45.004Z,1800.00
2018-05-12T06:37:45.770Z,1816.00
2018-05-12T06:38:45.768Z,1828.00
2018-05-12T06:40:07.275Z,1840.00
2018-05-12T06:40:46.271Z,1852.00
2018-05-12T06:42:46.268Z,1876.00
2018-05-12T06:43:46.771Z,1880.00
2018-05-12T06:44:45.995Z,1896.00
2018-05-12T06:45:46.772Z,1908.00
2018-05-12T06:46:46.769Z,1912.00
2018-05-12T06:47:47.271Z,1920.00
2018-05-12T06:48:47.269Z,1928.00
2018-05-12T06:49:47.274Z,1940.00
2018-05-12T06:50:47.268Z,1948.00
2018-05-12T06:52:07.849Z,1964.00
2018-05-12T06:52:47.794Z,1976.00
2018-05-12T06:53:47.781Z,1980.00
2018-05-12T06:54:48.271Z,1996.00
2018-05-12T06:55:48.274Z,2012.00
2018-05-12T06:56:48.271Z,2036.00
2018-05-12T06:57:47.620Z,2052.00
2018-05-12T06:58:48.271Z,2060.00
2018-05-12T07:01:21.032Z,2096.00
2018-05-12T07:02:19.373Z,2116.00
2018-05-12T07:03:20.046Z,2140.00
2018-05-12T07:04:20.043Z,2160.00
2018-05-12T07:05:22.546Z,2176.00
2018-05-12T07:06:20.545Z,2188.00
2018-05-12T07:07:20.545Z,2204.00
2018-05-12T07:08:20.552Z,2216.00
2018-05-12T07:09:42.053Z,2236.00
2018-05-12T07:10:22.026Z,2268.00
2018-05-12T07:11:21.046Z,2288.00
2018-05-12T07:12:21.048Z,2308.00
2018-05-12T07:13:21.543Z,2336.00
2018-05-12T07:14:21.545Z,2356.00
2018-05-12T07:15:21.552Z,2364.00
2018-05-12T07:16:21.546Z,2388.00
2018-05-12T07:17:22.045Z,2412.00
2018-05-12T07:18:22.050Z,2436.00
2018-05-12T07:19:22.086Z,2468.00
2018-05-12T07:20:22.046Z,2492.00
2018-05-12T07:21:24.022Z,2516.00
2018-05-12T07:22:22.545Z,2536.00
2018-05-12T07:23:24.977Z,2564.00
2018-05-12T07:24:22.546Z,2588.00
2018-05-12T07:25:22.550Z,2608.00
2018-05-12T07:29:25.746Z,2684.00
2018-05-12T07:30:25.757Z,2700.00
2018-05-12T07:31:25.758Z,2728.00
2018-05-12T07:32:25.358Z,2748.00
2018-05-12T07:33:26.256Z,2788.00
2018-05-12T07:36:18.753Z,2836.00
2018-05-12T07:37:18.758Z,2852.00
2018-05-12T07:37:57.763Z,2868.00
2018-05-12T07:38:58.362Z,2888.00
2018-05-12T07:41:30.609Z,2916.00
2018-05-12T07:42:29.644Z,2920.00
2018-05-12T07:43:29.244Z,2936.00
2018-05-12T07:44:30.143Z,2960.00
2018-05-12T07:45:53.144Z,2968.00
2018-05-12T07:46:30.144Z,2988.00
2018-05-12T07:47:53.643Z,3000.00
2018-05-12T07:48:31.575Z,3032.00
2018-05-12T07:49:31.576Z,3032.00
2018-05-12T07:50:30.644Z,3040.00
2018-05-12T07:51:52.144Z,3052.00
2018-05-12T07:52:31.169Z,3064.00
2018-05-12T07:53:30.495Z,3088.00
2018-05-12T07:54:31.148Z,3112.00
2018-05-12T07:55:31.643Z,3116.00
2018-05-12T08:03:37.869Z,3252.00
2018-05-12T08:26:19.402Z,3628.00
2018-05-12T08:34:42.556Z,3828.00
2018-05-12T08:37:22.094Z,4004.00
2018-05-12T08:41:34.178Z,4272.00
2018-05-12T08:48:44.200Z,4180.00
2018-05-12T08:55:22.615Z,4648.00
2018-05-12T08:57:54.169Z,4320.00
2018-05-12T09:16:08.036Z,5532.00
2018-05-12T09:19:44.129Z,5480.00
2018-05-12T09:24:46.630Z,5808.00
2018-05-12T09:26:07.629Z,5824.00
2018-05-12T09:27:07.714Z,5792.00
2018-05-12T09:29:47.128Z,5784.00
2018-05-12T09:37:53.197Z,6792.00
2018-05-12T10:03:40.640Z,7080.00
2018-05-12T10:04:45.173Z,6796.00
2018-05-12T10:20:27.250Z,8072.00
2018-05-12T10:26:43.532Z,7868.00
2018-05-12T10:41:26.794Z,7036.00
2018-05-12T10:46:55.884Z,7008.00
2018-05-12T10:49:50.025Z,6840.00
2018-05-12T10:50:50.037Z,6852.00
2018-05-12T10:51:26.642Z,6880.00
2018-05-12T10:52:48.537Z,6988.00
2018-05-12T10:56:54.764Z,7456.00
2018-05-12T11:09:42.659Z,8188.00
2018-05-12T11:23:22.442Z,10088.00
2018-05-12T11:27:19.431Z,8768.00
2018-05-12T11:32:53.190Z,8860.00
2018-05-12T11:41:24.317Z,9212.00
2018-05-12T11:42:31.331Z,9284.00
2018-05-12T12:03:22.774Z,10656.00
2018-05-12T12:10:02.234Z,10708.00
2018-05-12T12:19:45.257Z,44352.00
2018-05-12T12:20:59.269Z,51808.00
2018-05-12T12:29:44.087Z,80864.00
2018-05-12T12:32:21.604Z,87552.00
2018-05-12T12:32:53.995Z,88032.00
2018-05-12T12:46:29.926Z,79488.00
2018-05-12T12:50:30.912Z,86432.00
2018-05-12T13:02:04.430Z,79104.00
2018-05-12T13:04:45.112Z,80608.00
2018-05-12T13:07:16.569Z,61216.00
2018-05-12T13:07:55.636Z,76160.00
2018-05-12T13:18:23.702Z,82848.00
2018-05-12T13:20:33.653Z,73088.00
2018-05-12T13:21:55.850Z,75616.00
2018-05-12T13:35:06.722Z,76096.00
2018-05-12T13:49:50.151Z,78240.00
2018-05-12T13:50:51.877Z,77920.00
2018-05-12T14:08:16.420Z,74240.00
2018-05-12T14:11:08.413Z,75136.00
2018-05-12T14:17:53.470Z,78240.00
2018-05-12T14:20:25.779Z,73632.00
2018-05-12T14:30:55.030Z,72992.00
2018-05-12T14:34:58.186Z,69056.00
2018-05-12T14:44:46.233Z,67072.00
2018-05-12T14:50:41.769Z,57440.00
2018-05-12T14:51:23.479Z,58592.00
2018-05-12T14:52:42.483Z,62752.00
2018-05-12T14:57:55.581Z,61120.00
2018-05-12T14:58:57.768Z,59584.00
2018-05-12T15:03:22.554Z,60704.00
2018-05-12T15:11:36.320Z,46656.00
2018-05-12T15:12:58.046Z,44736.00
2018-05-12T15:16:39.462Z,46880.00
2018-05-12T15:17:54.170Z,9440.00
2018-05-12T15:25:07.264Z,12800.00
2018-05-12T15:27:38.804Z,11716.00
2018-05-12T15:30:09.686Z,11532.00
2018-05-12T15:41:29.843Z,9612.00
2018-05-12T15:50:09.801Z,10516.00
2018-05-12T15:51:07.807Z,10716.00
2018-05-12T15:53:38.658Z,11080.00
2018-05-12T15:57:42.943Z,11056.00
2018-05-12T15:58:57.623Z,10392.00
2018-05-12T16:02:52.883Z,10644.00
2018-05-12T16:12:38.284Z,4124.00
2018-05-12T16:16:50.407Z,3728.00
2018-05-12T16:17:58.391Z,2932.00
2018-05-12T16:21:29.976Z,3468.00
2018-05-12T16:22:30.683Z,3636.00
2018-05-12T16:29:57.288Z,3208.00
2018-05-12T16:30:37.043Z,3284.00
2018-05-12T16:33:10.694Z,2852.00
2018-05-12T16:36:01.209Z,2956.00
2018-05-12T16:39:44.137Z,2892.00
2018-05-12T16:54:50.574Z,2444.00
2018-05-12T17:04:42.863Z,2336.00
2018-05-12T17:14:44.925Z,2220.00
2018-05-12T17:16:07.655Z,2180.00
2018-05-12T17:18:17.082Z,2076.00
2018-05-12T17:42:09.528Z,1236.00
2018-05-12T17:43:37.104Z,1204.00
2018-05-12T17:45:55.867Z,1132.00
2018-05-12T17:51:30.893Z,980.00
2018-05-12T17:57:53.351Z,828.00
2018-05-12T18:22:06.938Z,444.00
2018-05-12T18:26:49.596Z,356.00
2018-05-12T18:32:42.472Z,276.00
2018-05-12T18:35:14.763Z,248.00
2018-05-12T18:37:48.280Z,224.00
2018-05-12T18:44:30.648Z,152.00
2018-05-12T18:54:15.879Z,80.00
2018-05-12T19:02:49.917Z,40.00
2018-05-12T19:09:56.448Z,20.00
2018-05-12T19:11:08.452Z,20.00
2018-05-12T19:14:57.009Z,12.00
2018-05-12T19:16:18.170Z,8.00
2018-05-12T19:20:06.813Z,8.00
2018-05-12T19:21:21.827Z,4.00
2018-05-12T19:23:38.599Z,4.00
2018-05-12T19:43:13.694Z,0.00
2018-05-12T19:50:03.850Z,0.00
2018-05-12T19:52:45.459Z,0.00
2018-05-12T19:55:06.086Z,0.00
2018-05-12T20:02:20.884Z,0.00
2018-05-12T20:03:06.236Z,0.00
2018-05-12T20:04:27.888Z,0.00
2018-05-12T20:05:11.862Z,0.00
2018-05-12T20:07:38.741Z,0.00
2018-05-12T20:10:10.380Z,0.00
2018-05-12T20:29:51.205Z,0.00
2018-05-12T20:38:07.591Z,0.00
2018-05-12T20:43:40.036Z,0.00
2018-05-12T20:44:46.048Z,0.00
2018-05-12T20:47:32.698Z,0.00
2018-05-12T20:50:10.205Z,0.00
2018-05-12T20:57:03.219Z,0.00
2018-05-12T21:04:22.393Z,0.00
2018-05-12T21:11:22.070Z,0.00
2018-05-12T21:37:24.506Z,0.00
2018-05-12T21:38:45.490Z,0.00
2018-05-12T21:41:03.672Z,0.00
2018-05-12T21:47:31.766Z,0.00
2018-05-12T21:50:03.787Z,0.00
2018-05-12T22:06:17.749Z,0.00
2018-05-12T22:07:38.830Z,0.00
2018-05-12T22:30:41.313Z,0.00
2018-05-12T22:47:10.254Z,0.00
2018-05-12T22:47:53.656Z,0.00
2018-05-12T22:55:14.203Z,0.00
2018-05-12T22:56:27.241Z,0.00
2018-05-12T23:07:10.557Z,0.00
2018-05-12T23:08:32.246Z,0.00
2018-05-12T23:09:15.221Z,0.00
2018-05-12T23:24:09.720Z,0.00
2018-05-12T23:31:22.162Z,0.00
2018-05-12T23:36:35.681Z,0.00
2018-05-12T23:50:54.108Z,0.00
2018-05-12T23:51:48.112Z,0.00
2018-05-12T23:52:50.114Z,0.00
2018-05-12T23:53:48.623Z,0.00
